Forks, WA

6:33 PM PST on November 22, 2014 (GMT -0800)
Quillayute | Change Station
CLOSE
Current Station
Airport
Location: Quillayute,
Elevation: 194 ft
Nearby Weather Stations

Elev 194 ft 47.94 °N, 124.56 °W | Updated 40 minutes ago

Overcast
Overcast
44 °F
Feels Like 42 °F
N
4
Wind Variable Wind from East

Today
High -- | Low -- °F
--% Chance of Precip.
Yesterday
High -- | Low -- °F
Precip. -- in
7:34 AM 4:33 PM
New Moon, 0% visible
Pressure 30.02 in
Visibility 3.0 miles
Clouds Overcast 5500 ft
Windchill 42 °F
Dew Point 44 °F
Humidity 100%
Rainfall 0.16 in
Snow Depth Not available.
UV 0 out of 12
Pollen .10 out of 12
Air Quality Not available.
Flu Activity Not available.
METAR KUIL 230153Z AUTO 09003KT 3SM BR OVC055 07/07 A3001 RMK AO2 SLP165 T00670067

More Conditions Fewer Conditions

Pressure 30.02 in
Visibility 3.0 miles
Clouds Overcast 5500 ft
Windchill 42 °F
Dew Point 44 °F
Humidity 100%
Rainfall 0.16 in
Snow Depth Not available.
UV 0 out of 12
Pollen .10 out of 12
Air Quality Not available.
Flu Activity Not available.
METAR KUIL 230153Z AUTO 09003KT 3SM BR OVC055 07/07 A3001 RMK AO2 SLP165 T00670067

More Conditions Fewer Conditions

10-Day Weather Forecast

Almanac

Astronomy

Nov. 22, 2014 Rise Set
Actual Time
Civil Twilight
Nautical Twilight
Astronomical Twilight
Moon
Length of Visible Light
Length of Day
Tomorrow will be .
, % of the Moon is Illuminated

Today's Extremes

State Highs State Lows

Community

WunderPhotos

Upload Photos

1,772,977 photos uploaded!

WunderBlogs® & News

Nearby

Air Quality

  Air Quality AQ Index Pollutant
Not available.

Snow Depth

Station Depth Elevation

Earthquake Activity

City Distance Mag. Time & Date
Minimum magnitude displayed is 2.5.

Coastal Water Temperatures

Place Temperature

Nearby Weather Stations